createdAt,value
2023-02-04T00:00:27.771Z,17.70
2023-02-04T00:02:58.729Z,17.70
2023-02-04T00:05:26.669Z,17.70
2023-02-04T00:07:57.261Z,17.70
2023-02-04T00:10:23.915Z,17.80
2023-02-04T00:12:50.646Z,17.70
2023-02-04T00:15:17.298Z,17.70
2023-02-04T00:17:43.949Z,17.80
2023-02-04T00:20:10.766Z,17.80
2023-02-04T00:22:37.369Z,17.70
2023-02-04T00:25:04.158Z,17.80
2023-02-04T00:27:30.903Z,17.70
2023-02-04T00:29:57.867Z,17.50
2023-02-04T00:32:24.901Z,17.80
2023-02-04T00:34:51.573Z,17.80
2023-02-04T00:37:20.569Z,17.80
2023-02-04T00:39:47.297Z,17.80
2023-02-04T00:42:20.031Z,17.80
2023-02-04T00:44:49.580Z,17.70
2023-02-04T00:47:16.225Z,17.70
2023-02-04T00:49:43.031Z,17.70
2023-02-04T00:52:10.545Z,17.60
2023-02-04T00:54:37.244Z,17.60
2023-02-04T00:57:06.564Z,17.90
2023-02-04T00:59:39.286Z,17.80
2023-02-04T01:02:05.910Z,17.90
2023-02-04T01:04:32.611Z,17.90
2023-02-04T01:06:59.350Z,17.90
2023-02-04T01:09:30.083Z,18.00
2023-02-04T01:11:57.140Z,17.80
2023-02-04T01:14:23.860Z,17.90
2023-02-04T01:16:50.519Z,17.90
2023-02-04T01:19:17.472Z,17.70
2023-02-04T01:21:49.406Z,17.90
2023-02-04T01:24:16.022Z,17.80
2023-02-04T01:26:42.640Z,17.90
2023-02-04T01:29:15.357Z,17.90
2023-02-04T01:31:41.962Z,17.80
2023-02-04T01:34:08.859Z,17.80
2023-02-04T01:36:35.469Z,17.90
2023-02-04T01:39:03.384Z,17.90
2023-02-04T01:41:30.067Z,17.90
2023-02-04T01:43:56.752Z,17.80
2023-02-04T01:46:28.681Z,17.90
2023-02-04T01:48:58.422Z,17.90
2023-02-04T01:51:27.980Z,17.80
2023-02-04T01:53:55.384Z,17.80
2023-02-04T01:56:24.295Z,17.70
2023-02-04T01:58:51.018Z,17.80
2023-02-04T02:01:34.417Z,17.90
2023-02-04T02:04:01.259Z,17.90
2023-02-04T02:06:33.751Z,17.90
2023-02-04T02:09:01.405Z,17.90
2023-02-04T02:11:30.002Z,17.90
2023-02-04T02:13:56.684Z,17.90
2023-02-04T02:16:26.446Z,18.00
2023-02-04T02:19:00.199Z,17.90
2023-02-04T02:21:59.163Z,17.90
2023-02-04T02:24:29.848Z,17.90
2023-02-04T02:27:04.810Z,18.00
2023-02-04T02:29:36.144Z,18.00
2023-02-04T02:32:04.222Z,17.90
2023-02-04T02:34:31.057Z,17.90
2023-02-04T02:37:06.630Z,17.90
2023-02-04T02:39:33.389Z,17.90
2023-02-04T02:42:03.141Z,17.90
2023-02-04T02:44:30.341Z,18.00
2023-02-04T02:46:57.204Z,18.00
2023-02-04T02:49:23.798Z,17.90
2023-02-04T02:51:56.557Z,18.00
2023-02-04T02:54:30.786Z,17.90
2023-02-04T02:57:00.415Z,17.90
2023-02-04T02:59:27.689Z,17.90
2023-02-04T03:02:02.021Z,17.90
2023-02-04T03:04:30.132Z,17.90
2023-02-04T03:06:56.938Z,18.00
2023-02-04T03:09:24.727Z,17.90
2023-02-04T03:11:51.820Z,17.90
2023-02-04T03:14:19.845Z,17.90
2023-02-04T03:16:47.991Z,17.90
2023-02-04T03:19:14.829Z,17.90
2023-02-04T03:21:42.130Z,17.90
2023-02-04T03:24:09.125Z,17.90
2023-02-04T03:26:43.169Z,17.90
2023-02-04T03:29:10.611Z,17.90
2023-02-04T03:31:47.990Z,17.90
2023-02-04T03:34:14.762Z,17.90
2023-02-04T03:36:41.407Z,17.90
2023-02-04T03:39:11.161Z,18.00
2023-02-04T03:41:43.090Z,17.90
2023-02-04T03:44:09.734Z,17.90
2023-02-04T03:46:36.387Z,17.90
2023-02-04T03:49:07.011Z,17.90
2023-02-04T03:51:36.232Z,17.90
2023-02-04T03:54:02.957Z,17.90
2023-02-04T03:56:29.559Z,17.90
2023-02-04T03:58:56.226Z,17.90
2023-02-04T04:01:22.946Z,17.90
2023-02-04T04:03:52.178Z,18.10
2023-02-04T04:06:18.817Z,18.20
2023-02-04T04:08:45.511Z,18.10
2023-02-04T04:11:12.121Z,18.20
2023-02-04T04:13:41.636Z,18.10
2023-02-04T04:16:10.283Z,18.00
2023-02-04T04:18:36.953Z,18.10
2023-02-04T04:21:03.792Z,18.10
2023-02-04T04:23:30.461Z,18.00
2023-02-04T04:25:57.092Z,17.90
2023-02-04T04:28:23.763Z,17.90
2023-02-04T04:30:50.526Z,17.90
2023-02-04T04:33:17.186Z,17.90
2023-02-04T04:35:43.798Z,17.90
2023-02-04T04:38:11.287Z,17.80
2023-02-04T04:40:37.962Z,17.80
2023-02-04T04:43:07.495Z,17.90
2023-02-04T04:45:34.183Z,18.00
2023-02-04T04:48:02.052Z,17.80
2023-02-04T04:50:34.709Z,17.80
2023-02-04T04:53:04.093Z,17.80
2023-02-04T04:55:32.153Z,17.80
2023-02-04T04:57:58.778Z,17.80
2023-02-04T05:00:30.238Z,17.70
2023-02-04T05:02:58.151Z,17.80
2023-02-04T05:05:27.299Z,17.70
2023-02-04T05:07:59.688Z,17.70
2023-02-04T05:10:26.556Z,17.90
2023-02-04T05:12:53.364Z,17.80
2023-02-04T05:15:23.004Z,17.70
2023-02-04T05:17:53.534Z,17.70
2023-02-04T05:20:20.134Z,17.80
2023-02-04T05:22:53.288Z,17.70
2023-02-04T05:25:19.962Z,17.70
2023-02-04T05:27:46.697Z,17.60
2023-02-04T05:30:13.411Z,17.60
2023-02-04T05:32:40.111Z,17.70
2023-02-04T05:35:06.896Z,17.70
2023-02-04T05:37:33.737Z,17.60
2023-02-04T05:40:00.517Z,17.70
2023-02-04T05:42:32.998Z,17.60
2023-02-04T05:45:05.258Z,17.70
2023-02-04T05:47:31.984Z,17.60
2023-02-04T05:49:58.706Z,17.70
2023-02-04T05:52:25.457Z,17.70
2023-02-04T05:54:52.047Z,17.60
2023-02-04T05:57:18.674Z,17.60
2023-02-04T05:59:48.128Z,17.70
2023-02-04T06:02:14.718Z,17.60
2023-02-04T06:04:48.738Z,17.60
2023-02-04T06:07:15.572Z,17.60
2023-02-04T06:09:44.903Z,17.60
2023-02-04T06:12:11.487Z,17.60
2023-02-04T06:14:40.437Z,17.60
2023-02-04T06:17:12.977Z,17.60
2023-02-04T06:19:40.084Z,17.50
2023-02-04T06:22:09.678Z,17.50
2023-02-04T06:24:36.940Z,17.60
2023-02-04T06:27:03.913Z,17.50
2023-02-04T06:29:35.103Z,17.60
2023-02-04T06:32:01.790Z,17.70
2023-02-04T06:34:28.497Z,17.50
2023-02-04T06:36:59.128Z,17.50
2023-02-04T06:39:28.840Z,17.50
2023-02-04T06:41:55.418Z,17.30
2023-02-04T06:44:22.060Z,17.50
2023-02-04T06:46:51.629Z,17.40
2023-02-04T06:49:18.659Z,17.50
2023-02-04T06:51:45.360Z,17.50
2023-02-04T06:54:12.059Z,17.50
2023-02-04T06:56:43.529Z,17.50
2023-02-04T06:59:23.453Z,17.50
2023-02-04T07:01:50.139Z,17.70
2023-02-04T07:04:16.816Z,17.40
2023-02-04T07:06:46.296Z,17.40
2023-02-04T07:09:12.940Z,17.50
2023-02-04T07:11:39.522Z,17.50
2023-02-04T07:14:08.900Z,17.60
2023-02-04T07:16:35.531Z,17.50
2023-02-04T07:19:02.283Z,17.50
2023-02-04T07:21:28.980Z,17.50
2023-02-04T07:23:55.598Z,17.50
2023-02-04T07:26:22.265Z,17.60
2023-02-04T07:28:49.178Z,17.50
2023-02-04T07:31:18.867Z,17.40
2023-02-04T07:33:45.574Z,17.70
2023-02-04T07:36:13.794Z,17.40
2023-02-04T07:38:41.943Z,17.40
2023-02-04T07:41:14.600Z,17.40
2023-02-04T07:43:44.208Z,17.40
2023-02-04T07:46:16.017Z,17.50
2023-02-04T07:48:45.651Z,17.40
2023-02-04T07:51:12.345Z,17.40
2023-02-04T07:53:44.473Z,17.40
2023-02-04T07:56:11.106Z,17.40
2023-02-04T07:58:40.673Z,17.40
2023-02-04T08:01:07.278Z,17.40
2023-02-04T08:03:34.013Z,17.40
2023-02-04T08:06:03.797Z,17.30
2023-02-04T08:08:33.123Z,17.40
2023-02-04T08:10:59.780Z,17.40
2023-02-04T08:13:26.582Z,17.40
2023-02-04T08:15:53.311Z,17.50
2023-02-04T08:18:21.921Z,17.40
2023-02-04T08:20:54.629Z,17.30
2023-02-04T08:23:21.397Z,17.30
2023-02-04T08:25:47.970Z,17.40
2023-02-04T08:28:14.756Z,17.30
2023-02-04T08:30:42.907Z,17.40
2023-02-04T08:33:09.970Z,17.40
2023-02-04T08:35:36.595Z,17.30
2023-02-04T08:38:03.227Z,17.30
2023-02-04T08:40:35.427Z,17.40
2023-02-04T08:43:02.217Z,17.40
2023-02-04T08:45:28.791Z,17.30
2023-02-04T08:47:55.417Z,17.30
2023-02-04T08:50:22.280Z,17.30
2023-02-04T08:52:53.663Z,17.30
2023-02-04T08:55:22.519Z,17.30
2023-02-04T08:57:49.200Z,17.40
2023-02-04T09:00:15.986Z,17.40
2023-02-04T09:02:42.620Z,17.60
2023-02-04T09:07:52.527Z,17.50
2023-02-04T09:10:19.372Z,17.60
2023-02-04T09:13:00.184Z,17.50
2023-02-04T09:15:26.894Z,17.50
2023-02-04T09:17:55.621Z,17.60
2023-02-04T09:20:23.536Z,17.50
2023-02-04T09:23:00.576Z,17.60
2023-02-04T09:25:27.250Z,17.50
2023-02-04T09:28:05.115Z,17.50
2023-02-04T09:30:35.404Z,17.70
2023-02-04T09:33:02.115Z,17.50
2023-02-04T09:35:31.821Z,17.50
2023-02-04T09:37:58.499Z,17.60
2023-02-04T09:40:26.699Z,17.60
2023-02-04T09:42:54.408Z,17.60
2023-02-04T09:45:26.683Z,17.50
2023-02-04T09:47:54.151Z,17.30
2023-02-04T09:50:22.623Z,17.40
2023-02-04T09:52:53.100Z,17.50
2023-02-04T09:55:20.891Z,17.50
2023-02-04T09:57:47.754Z,17.60
2023-02-04T10:00:35.003Z,17.60
2023-02-04T10:03:02.442Z,17.60
2023-02-04T10:05:33.728Z,17.50
2023-02-04T10:08:00.451Z,17.60
2023-02-04T10:10:27.642Z,17.60
2023-02-04T10:12:57.082Z,17.60
2023-02-04T10:15:26.396Z,17.60
2023-02-04T10:17:58.599Z,17.60
2023-02-04T10:20:26.403Z,17.60
2023-02-04T10:22:54.955Z,17.70
2023-02-04T10:25:26.150Z,17.60
2023-02-04T10:27:57.226Z,17.70
2023-02-04T10:30:25.120Z,17.60
2023-02-04T10:32:52.295Z,17.60
2023-02-04T10:35:21.237Z,17.60
2023-02-04T10:37:48.247Z,17.70
2023-02-04T10:40:34.889Z,17.70
2023-02-04T10:43:20.588Z,17.70
2023-02-04T10:45:54.993Z,17.70
2023-02-04T10:48:21.841Z,17.70
2023-02-04T10:50:48.844Z,17.60
2023-02-04T10:53:35.570Z,17.70
2023-02-04T10:56:03.144Z,17.70
2023-02-04T10:58:30.874Z,17.60
2023-02-04T11:00:58.777Z,17.60
2023-02-04T11:03:30.866Z,17.70
2023-02-04T11:05:58.569Z,17.60
2023-02-04T11:08:27.272Z,17.70
2023-02-04T11:11:01.880Z,17.70
2023-02-04T11:13:40.115Z,17.50
2023-02-04T11:16:14.812Z,17.70
2023-02-04T11:18:52.499Z,17.60
2023-02-04T11:21:40.417Z,17.70
2023-02-04T11:24:16.322Z,17.50
2023-02-04T11:26:43.041Z,17.40
2023-02-04T11:29:22.856Z,17.50
2023-02-04T11:31:49.663Z,17.60
2023-02-04T11:34:16.550Z,17.80
2023-02-04T11:37:02.637Z,17.80
2023-02-04T11:39:33.696Z,17.90
2023-02-04T11:42:00.894Z,17.90
2023-02-04T11:44:27.886Z,17.70
2023-02-04T11:47:00.713Z,17.60
2023-02-04T11:49:27.424Z,17.50
2023-02-04T11:52:14.914Z,17.70
2023-02-04T11:54:52.564Z,17.70
2023-02-04T11:57:20.170Z,17.70
2023-02-04T11:59:46.818Z,17.70
2023-02-04T12:02:16.623Z,17.70
2023-02-04T12:05:09.790Z,17.70
2023-02-04T12:07:40.034Z,17.80
2023-02-04T12:10:22.014Z,17.90
2023-02-04T12:12:58.078Z,17.80
2023-02-04T12:15:31.205Z,18.00
2023-02-04T12:18:05.191Z,17.90
2023-02-04T12:20:31.985Z,18.00
2023-02-04T12:22:58.760Z,17.90
2023-02-04T12:25:31.500Z,17.80
2023-02-04T12:27:58.348Z,17.90
2023-02-04T12:30:30.605Z,18.00
2023-02-04T12:32:57.199Z,17.90
2023-02-04T12:39:12.948Z,18.00
2023-02-04T12:41:44.119Z,18.10
2023-02-04T12:44:34.527Z,18.20
2023-02-04T12:54:39.417Z,17.90
2023-02-04T13:00:27.497Z,17.80
2023-02-04T13:03:14.327Z,18.00
2023-02-04T13:06:08.558Z,17.90
2023-02-04T13:08:42.611Z,18.00
2023-02-04T13:18:14.970Z,18.00
2023-02-04T13:20:47.888Z,17.80
2023-02-04T13:23:50.165Z,17.90
2023-02-04T13:26:29.126Z,18.00
2023-02-04T13:32:35.105Z,17.90
2023-02-04T13:35:08.378Z,18.00
2023-02-04T13:37:55.724Z,17.90
2023-02-04T13:40:28.136Z,17.90
2023-02-04T13:43:59.442Z,18.10
2023-02-04T14:17:51.868Z,17.90
2023-02-04T14:21:00.643Z,17.90
2023-02-04T14:28:02.601Z,18.00
2023-02-04T17:51:52.684Z,17.80
2023-02-04T18:22:19.296Z,17.90
2023-02-04T18:51:59.677Z,17.90
2023-02-04T19:06:34.838Z,17.80
2023-02-04T19:43:21.783Z,17.80
2023-02-04T19:49:46.380Z,17.80
2023-02-04T22:12:34.749Z,17.90
2023-02-04T23:24:29.639Z,17.60
2023-02-04T23:27:14.892Z,17.60
2023-02-04T23:39:14.797Z,17.60
2023-02-04T23:42:25.259Z,17.50
2023-02-04T23:45:51.388Z,17.60
